createdAt,value
2018-03-28T00:01:31.749Z,4.73
2018-03-28T00:04:00.228Z,4.76
2018-03-28T00:06:28.696Z,4.69
2018-03-28T00:08:57.156Z,4.56
2018-03-28T00:11:25.545Z,4.40
2018-03-28T00:13:53.976Z,4.44
2018-03-28T00:16:22.425Z,4.50
2018-03-28T00:18:50.842Z,4.55
2018-03-28T00:21:19.334Z,4.52
2018-03-28T00:23:47.789Z,4.46
2018-03-28T00:26:16.164Z,4.50
2018-03-28T00:28:44.577Z,4.61
2018-03-28T00:31:13.018Z,4.56
2018-03-28T00:33:41.468Z,4.61
2018-03-28T00:36:09.855Z,4.65
2018-03-28T00:38:38.288Z,4.63
2018-03-28T00:41:06.692Z,4.52
2018-03-28T00:43:35.088Z,4.63
2018-03-28T00:46:03.537Z,4.61
2018-03-28T00:48:32.031Z,4.67
2018-03-28T00:53:59.629Z,4.79
2018-03-28T00:56:28.069Z,4.71
2018-03-28T00:58:56.476Z,4.65
2018-03-28T01:01:24.941Z,4.68
2018-03-28T01:03:53.350Z,4.78
2018-03-28T01:06:21.792Z,4.68
2018-03-28T01:08:50.212Z,4.70
2018-03-28T01:11:18.642Z,4.66
2018-03-28T01:13:47.020Z,4.62
2018-03-28T01:16:15.457Z,4.56
2018-03-28T01:18:43.877Z,4.60
2018-03-28T01:21:12.645Z,4.94
2018-03-28T01:23:41.051Z,4.71
2018-03-28T01:26:09.458Z,4.79
2018-03-28T01:28:37.896Z,4.82
2018-03-28T01:31:06.316Z,4.79
2018-03-28T01:33:34.716Z,4.88
2018-03-28T01:36:03.564Z,4.98
2018-03-28T01:38:31.960Z,4.89
2018-03-28T01:41:00.344Z,5.07
2018-03-28T01:43:28.799Z,5.06
2018-03-28T01:45:57.261Z,5.08
2018-03-28T01:48:25.672Z,4.91
2018-03-28T01:50:54.361Z,4.89
2018-03-28T01:53:23.177Z,4.62
2018-03-28T01:55:51.723Z,4.74
2018-03-28T01:58:20.103Z,4.82
2018-03-28T02:03:23.252Z,4.83
2018-03-28T02:05:51.762Z,4.79
2018-03-28T02:08:20.253Z,4.75
2018-03-28T02:10:48.816Z,4.81
2018-03-28T02:13:17.233Z,4.46
2018-03-28T02:15:45.688Z,4.96
2018-03-28T02:18:14.080Z,4.85
2018-03-28T02:20:42.561Z,4.68
2018-03-28T02:23:10.946Z,4.77
2018-03-28T02:25:39.507Z,4.71
2018-03-28T02:28:07.905Z,4.83
2018-03-28T02:30:36.363Z,4.75
2018-03-28T02:33:04.797Z,4.80
2018-03-28T02:35:33.318Z,4.81
2018-03-28T02:38:01.712Z,4.94
2018-03-28T02:40:30.145Z,4.79
2018-03-28T02:42:58.600Z,4.75
2018-03-28T02:45:26.992Z,4.60
2018-03-28T02:47:55.386Z,3.96
2018-03-28T02:50:23.881Z,3.27
2018-03-28T02:52:52.265Z,3.04
2018-03-28T02:55:20.789Z,3.10
2018-03-28T02:57:49.285Z,3.08
2018-03-28T03:00:17.833Z,2.92
2018-03-28T03:02:46.239Z,2.93
2018-03-28T03:05:14.831Z,2.94
2018-03-28T03:07:43.284Z,2.93
2018-03-28T03:10:12.002Z,2.82
2018-03-28T03:12:40.465Z,2.89
2018-03-28T03:15:08.860Z,2.88
2018-03-28T03:17:37.309Z,3.08
2018-03-28T03:20:05.761Z,3.17
2018-03-28T03:22:34.199Z,3.14
2018-03-28T03:25:02.605Z,2.84
2018-03-28T03:27:31.083Z,2.90
2018-03-28T03:29:59.498Z,2.88
2018-03-28T03:32:27.876Z,2.60
2018-03-28T03:34:56.381Z,2.53
2018-03-28T03:37:24.787Z,2.70
2018-03-28T03:39:53.240Z,2.83
2018-03-28T03:42:21.652Z,2.81
2018-03-28T03:44:50.097Z,3.00
2018-03-28T03:47:18.510Z,2.76
2018-03-28T03:49:46.905Z,2.83
2018-03-28T03:52:15.357Z,3.01
2018-03-28T03:54:43.772Z,3.12
2018-03-28T03:57:12.214Z,3.24
2018-03-28T03:59:40.610Z,3.07
2018-03-28T04:02:09.028Z,3.13
2018-03-28T04:04:37.517Z,3.26
2018-03-28T04:07:05.925Z,3.36
2018-03-28T04:09:34.366Z,3.42
2018-03-28T04:12:02.908Z,3.36
2018-03-28T04:14:31.356Z,3.40
2018-03-28T04:16:59.748Z,3.46
2018-03-28T04:19:28.242Z,3.48
2018-03-28T04:21:56.746Z,3.44
2018-03-28T04:24:25.183Z,3.45
2018-03-28T04:26:53.636Z,3.46
2018-03-28T04:29:22.057Z,3.42
2018-03-28T04:31:50.508Z,3.45
2018-03-28T04:34:18.887Z,3.61
2018-03-28T04:36:47.318Z,3.53
2018-03-28T04:39:15.808Z,3.45
2018-03-28T04:41:44.247Z,3.36
2018-03-28T04:44:12.676Z,3.42
2018-03-28T04:46:41.068Z,3.24
2018-03-28T04:49:09.492Z,3.38
2018-03-28T04:51:37.937Z,3.42
2018-03-28T04:54:06.325Z,3.38
2018-03-28T04:56:34.761Z,3.29
2018-03-28T04:59:03.200Z,3.31
2018-03-28T05:01:31.591Z,3.41
2018-03-28T05:04:00.061Z,3.36
2018-03-28T05:06:28.498Z,3.48
2018-03-28T05:08:56.924Z,3.58
2018-03-28T05:11:25.329Z,3.68
2018-03-28T05:13:53.813Z,3.51
2018-03-28T05:16:22.256Z,3.67
2018-03-28T05:18:50.808Z,4.00
2018-03-28T05:21:19.231Z,4.19
2018-03-28T05:23:47.721Z,4.24
2018-03-28T05:26:16.147Z,4.53
2018-03-28T05:28:44.568Z,4.47
2018-03-28T05:31:12.961Z,4.49
2018-03-28T05:33:41.621Z,4.67
2018-03-28T05:36:10.051Z,4.63
2018-03-28T05:38:38.505Z,4.84
2018-03-28T05:41:06.941Z,5.07
2018-03-28T05:43:35.380Z,5.13
2018-03-28T05:46:03.939Z,5.38
2018-03-28T05:48:32.329Z,5.47
2018-03-28T05:51:00.770Z,5.63
2018-03-28T05:53:29.235Z,5.67
2018-03-28T05:55:57.728Z,6.30
2018-03-28T05:58:26.185Z,6.02
2018-03-28T06:00:54.662Z,6.08
2018-03-28T06:03:23.076Z,5.96
2018-03-28T06:05:51.496Z,5.81
2018-03-28T06:08:19.906Z,6.32
2018-03-28T06:10:48.297Z,6.22
2018-03-28T06:13:16.738Z,6.45
2018-03-28T06:15:45.229Z,6.12
2018-03-28T06:18:13.659Z,6.05
2018-03-28T06:20:42.067Z,6.24
2018-03-28T06:23:10.516Z,5.85
2018-03-28T06:25:38.917Z,6.08
2018-03-28T06:28:07.411Z,6.01
2018-03-28T06:30:36.118Z,5.67
2018-03-28T06:33:04.574Z,5.74
2018-03-28T06:35:32.972Z,5.32
2018-03-28T06:38:01.424Z,5.81
2018-03-28T06:40:29.896Z,5.14
2018-03-28T06:42:58.316Z,5.38
2018-03-28T06:45:26.752Z,5.85
2018-03-28T06:47:55.180Z,6.27
2018-03-28T06:50:23.619Z,6.64
2018-03-28T06:52:52.030Z,6.53
2018-03-28T06:55:20.488Z,6.51
2018-03-28T06:57:48.901Z,6.33
2018-03-28T07:00:17.321Z,6.03
2018-03-28T07:02:45.752Z,6.00
2018-03-28T07:05:14.173Z,6.32
2018-03-28T07:07:42.561Z,6.81
2018-03-28T07:10:11.021Z,6.45
2018-03-28T07:12:39.445Z,6.04
2018-03-28T07:15:07.842Z,6.13
2018-03-28T07:17:36.290Z,6.07
2018-03-28T07:20:04.668Z,6.41
2018-03-28T07:22:33.129Z,6.28
2018-03-28T07:25:01.822Z,6.04
2018-03-28T07:27:30.251Z,6.34
2018-03-28T07:29:58.706Z,6.32
2018-03-28T07:32:27.221Z,6.26
2018-03-28T07:34:55.617Z,5.85
2018-03-28T07:37:24.081Z,6.17
2018-03-28T07:39:52.504Z,6.43
2018-03-28T07:42:20.936Z,6.48
2018-03-28T07:44:49.401Z,6.21
2018-03-28T07:47:18.333Z,5.91
2018-03-28T07:49:46.758Z,6.54
2018-03-28T07:52:15.136Z,6.53
2018-03-28T07:54:43.566Z,6.43
2018-03-28T07:57:11.961Z,6.56
2018-03-28T07:59:40.379Z,6.54
2018-03-28T08:02:08.896Z,6.70
2018-03-28T08:04:37.334Z,7.13
2018-03-28T08:07:08.662Z,6.70
2018-03-28T08:09:37.110Z,6.27
2018-03-28T08:12:05.524Z,6.38
2018-03-28T08:14:33.989Z,6.86
2018-03-28T08:17:02.394Z,7.04
2018-03-28T08:19:30.814Z,6.85
2018-03-28T08:21:59.246Z,7.07
2018-03-28T08:24:27.997Z,7.19
2018-03-28T08:26:56.474Z,6.76
2018-03-28T08:29:24.878Z,6.75
2018-03-28T08:31:53.280Z,6.89
2018-03-28T08:34:21.706Z,6.87
2018-03-28T08:36:50.107Z,7.07
2018-03-28T08:39:18.525Z,6.54
2018-03-28T08:41:46.988Z,6.68
2018-03-28T08:44:15.434Z,7.05
2018-03-28T08:46:43.908Z,6.95
2018-03-28T08:49:12.309Z,7.08
2018-03-28T08:51:40.745Z,7.30
2018-03-28T08:54:09.197Z,7.47
2018-03-28T08:56:37.633Z,7.34
2018-03-28T08:59:06.024Z,7.94
2018-03-28T09:01:34.469Z,7.75
2018-03-28T09:04:02.910Z,7.67
2018-03-28T09:06:31.333Z,7.50
2018-03-28T09:08:59.721Z,8.09
2018-03-28T09:11:28.157Z,8.10
2018-03-28T09:13:56.589Z,7.84
2018-03-28T09:16:25.141Z,8.32
2018-03-28T09:18:53.663Z,8.44
2018-03-28T09:21:22.053Z,8.02
2018-03-28T09:23:50.473Z,8.16
2018-03-28T09:26:18.891Z,7.96
2018-03-28T09:28:47.324Z,8.11
2018-03-28T09:31:15.721Z,8.64
2018-03-28T09:33:44.184Z,9.07
2018-03-28T09:36:12.619Z,9.14
2018-03-28T09:38:41.079Z,9.66
2018-03-28T09:41:09.461Z,9.83
2018-03-28T09:43:37.912Z,9.04
2018-03-28T09:46:06.349Z,8.81
2018-03-28T09:48:34.817Z,9.79
2018-03-28T09:51:03.217Z,10.33
2018-03-28T09:53:31.679Z,10.13
2018-03-28T09:56:00.113Z,10.58
2018-03-28T09:58:28.495Z,11.16
2018-03-28T10:01:12.912Z,11.33
2018-03-28T10:03:46.865Z,10.90
2018-03-28T10:06:15.274Z,11.85
2018-03-28T10:08:43.751Z,11.97
2018-03-28T10:11:12.188Z,11.61
2018-03-28T10:13:40.623Z,11.28
2018-03-28T10:16:09.019Z,10.65
2018-03-28T10:18:37.460Z,10.31
2018-03-28T10:21:05.854Z,10.60
2018-03-28T10:23:34.236Z,11.42
2018-03-28T10:26:02.682Z,12.25
2018-03-28T10:28:31.124Z,11.19
2018-03-28T10:30:59.544Z,10.98
2018-03-28T10:33:27.980Z,10.66
2018-03-28T10:35:56.468Z,10.92
2018-03-28T10:38:24.916Z,11.12
2018-03-28T10:40:53.480Z,12.73
2018-03-28T10:43:21.943Z,12.49
2018-03-28T10:45:50.326Z,13.18
2018-03-28T10:48:18.762Z,13.59
2018-03-28T10:50:47.205Z,13.46
2018-03-28T10:53:15.640Z,13.70
2018-03-28T10:55:44.098Z,13.47
2018-03-28T10:58:12.500Z,12.44
2018-03-28T11:00:40.928Z,11.57
2018-03-28T11:03:09.369Z,10.96
2018-03-28T11:05:37.820Z,11.07
2018-03-28T11:08:06.264Z,12.20
2018-03-28T11:10:34.729Z,12.96
2018-03-28T11:13:03.212Z,12.01
2018-03-28T11:15:31.633Z,11.65
2018-03-28T11:18:00.017Z,11.86
2018-03-28T11:20:28.530Z,12.50
2018-03-28T11:22:56.914Z,13.05
2018-03-28T11:25:25.364Z,13.04
2018-03-28T11:27:53.771Z,13.39
2018-03-28T11:30:22.320Z,12.42
2018-03-28T11:32:50.785Z,11.26
2018-03-28T11:35:19.268Z,11.37
2018-03-28T11:37:47.661Z,11.81
2018-03-28T11:40:16.085Z,11.88
2018-03-28T11:42:44.510Z,12.52
2018-03-28T11:45:12.912Z,12.70
2018-03-28T11:47:41.382Z,13.26
2018-03-28T11:50:09.788Z,13.75
2018-03-28T11:52:38.234Z,13.64
2018-03-28T11:55:06.757Z,13.35
2018-03-28T11:57:35.225Z,12.87
2018-03-28T12:00:03.715Z,14.31
2018-03-28T12:02:32.249Z,15.20
2018-03-28T12:05:00.740Z,14.87
2018-03-28T12:07:29.137Z,15.30
2018-03-28T12:09:57.586Z,13.70
2018-03-28T12:12:25.992Z,13.01
2018-03-28T12:14:54.429Z,12.07
2018-03-28T12:17:22.860Z,11.43
2018-03-28T12:19:51.336Z,10.60
2018-03-28T12:22:19.755Z,9.76
2018-03-28T12:24:48.137Z,10.40
2018-03-28T12:27:16.593Z,11.02
2018-03-28T12:29:45.053Z,10.93
2018-03-28T12:32:13.476Z,10.87
2018-03-28T12:34:41.925Z,11.78
2018-03-28T12:37:10.372Z,12.45
2018-03-28T12:39:38.808Z,13.22
2018-03-28T12:42:07.265Z,14.79
2018-03-28T12:44:35.680Z,15.14
2018-03-28T12:47:04.204Z,14.73
2018-03-28T12:49:32.725Z,14.12
2018-03-28T12:52:01.094Z,13.95
2018-03-28T12:54:29.525Z,15.07
2018-03-28T12:56:57.935Z,15.14
2018-03-28T12:59:26.384Z,14.35
2018-03-28T13:01:54.770Z,13.77
2018-03-28T13:04:23.179Z,14.05
2018-03-28T13:06:51.649Z,12.87
2018-03-28T13:09:20.067Z,11.94
2018-03-28T13:11:48.510Z,12.02
2018-03-28T13:14:16.948Z,11.73
2018-03-28T13:16:45.382Z,12.49
2018-03-28T13:19:13.848Z,12.51
2018-03-28T13:21:42.300Z,13.54
2018-03-28T13:24:10.753Z,14.60
2018-03-28T13:26:39.179Z,15.50
2018-03-28T13:29:07.597Z,16.37
2018-03-28T13:31:36.031Z,16.84
2018-03-28T13:34:04.488Z,15.64
2018-03-28T13:36:32.905Z,15.14
2018-03-28T13:39:01.332Z,13.24
2018-03-28T13:41:29.792Z,13.88
2018-03-28T13:43:58.253Z,13.59
2018-03-28T13:46:26.637Z,12.52
2018-03-28T13:48:55.065Z,12.33
2018-03-28T13:51:23.520Z,13.09
2018-03-28T13:53:51.996Z,14.35
2018-03-28T13:56:20.408Z,14.33
2018-03-28T13:58:48.807Z,13.22
2018-03-28T14:01:17.216Z,13.53
2018-03-28T14:03:45.609Z,13.21
2018-03-28T14:06:14.058Z,11.99
2018-03-28T14:08:42.505Z,10.79
2018-03-28T14:11:11.283Z,11.09
2018-03-28T14:13:39.670Z,11.02
2018-03-28T14:16:08.149Z,10.79
2018-03-28T14:18:36.557Z,11.35
2018-03-28T14:21:04.951Z,11.07
2018-03-28T14:23:33.406Z,12.14
2018-03-28T14:26:01.846Z,13.37
2018-03-28T14:28:30.323Z,13.20
2018-03-28T14:30:58.833Z,11.59
2018-03-28T14:33:27.240Z,11.63
2018-03-28T14:35:55.677Z,11.41
2018-03-28T14:38:24.070Z,11.05
2018-03-28T14:40:52.517Z,11.06
2018-03-28T14:43:20.938Z,10.96
2018-03-28T14:45:49.396Z,10.77
2018-03-28T14:48:17.791Z,10.87
2018-03-28T14:50:46.198Z,11.08
2018-03-28T14:53:14.653Z,10.52
2018-03-28T14:55:43.082Z,10.56
2018-03-28T14:58:11.494Z,10.71
2018-03-28T15:00:39.904Z,10.66
2018-03-28T15:03:08.416Z,10.61
2018-03-28T15:05:36.866Z,10.89
2018-03-28T15:08:05.488Z,10.48
2018-03-28T15:10:33.893Z,10.69
2018-03-28T15:13:02.344Z,10.16
2018-03-28T15:15:30.793Z,9.95
2018-03-28T15:17:59.368Z,9.83
2018-03-28T15:20:27.799Z,9.79
2018-03-28T15:22:56.221Z,9.63
2018-03-28T15:25:24.605Z,9.91
2018-03-28T15:27:53.058Z,10.00
2018-03-28T15:30:21.466Z,10.19
2018-03-28T15:32:49.935Z,9.97
2018-03-28T15:35:18.343Z,10.78
2018-03-28T15:37:46.784Z,12.42
2018-03-28T15:40:15.197Z,14.06
2018-03-28T15:42:43.658Z,14.81
2018-03-28T15:45:12.101Z,15.46
2018-03-28T15:47:40.511Z,14.04
2018-03-28T15:50:09.026Z,13.09
2018-03-28T15:52:37.485Z,12.66
2018-03-28T15:55:05.865Z,12.64
2018-03-28T15:57:34.300Z,12.58
2018-03-28T16:00:02.834Z,12.22
2018-03-28T16:02:31.248Z,11.97
2018-03-28T16:04:59.678Z,11.15
2018-03-28T16:07:28.137Z,10.20
2018-03-28T16:09:56.617Z,10.19
2018-03-28T16:12:25.025Z,9.91
2018-03-28T16:14:53.429Z,9.81
2018-03-28T16:17:21.856Z,9.81
2018-03-28T16:19:50.281Z,9.79
2018-03-28T16:22:18.726Z,10.29
2018-03-28T16:24:47.189Z,10.72
2018-03-28T16:27:15.662Z,10.80
2018-03-28T16:29:44.120Z,10.88
2018-03-28T16:32:12.670Z,10.30
2018-03-28T16:34:41.487Z,9.84
2018-03-28T16:37:10.017Z,8.93
2018-03-28T16:39:38.460Z,8.62
2018-03-28T16:42:07.109Z,8.34
2018-03-28T16:44:35.625Z,8.28
2018-03-28T16:47:04.044Z,8.24
2018-03-28T16:49:32.477Z,7.82
2018-03-28T16:52:00.868Z,7.78
2018-03-28T16:54:29.302Z,7.59
2018-03-28T16:56:57.696Z,7.10
2018-03-28T16:59:26.279Z,7.16
2018-03-28T17:01:54.742Z,7.04
2018-03-28T17:04:23.157Z,7.03
2018-03-28T17:06:51.606Z,6.85
2018-03-28T17:09:20.158Z,6.68
2018-03-28T17:11:48.581Z,6.66
2018-03-28T17:14:17.005Z,6.48
2018-03-28T17:16:45.485Z,6.61
2018-03-28T17:19:13.888Z,6.42
2018-03-28T17:21:42.337Z,6.47
2018-03-28T17:24:10.728Z,6.22
2018-03-28T17:26:39.134Z,6.22
2018-03-28T17:29:07.701Z,5.96
2018-03-28T17:31:36.145Z,5.90
2018-03-28T17:34:04.565Z,5.86
2018-03-28T17:36:33.012Z,5.97
2018-03-28T17:39:01.540Z,5.92
2018-03-28T17:41:29.985Z,5.78
2018-03-28T17:43:58.525Z,5.67
2018-03-28T17:46:26.959Z,5.75
2018-03-28T17:48:55.362Z,5.54
2018-03-28T17:51:23.782Z,5.29
2018-03-28T17:53:52.169Z,5.41
2018-03-28T17:56:20.589Z,5.20
2018-03-28T17:58:49.025Z,5.21
2018-03-28T18:01:17.490Z,5.23
2018-03-28T18:03:45.881Z,5.29
2018-03-28T18:06:14.332Z,4.91
2018-03-28T18:08:42.760Z,4.85
2018-03-28T18:11:11.205Z,4.93
2018-03-28T18:13:39.596Z,4.88
2018-03-28T18:16:08.158Z,4.40
2018-03-28T18:18:36.571Z,4.81
2018-03-28T18:21:05.137Z,4.76
2018-03-28T18:23:33.594Z,4.88
2018-03-28T18:26:02.034Z,4.75
2018-03-28T18:28:30.464Z,4.75
2018-03-28T18:30:58.921Z,4.55
2018-03-28T18:33:27.326Z,4.78
2018-03-28T18:35:55.778Z,4.85
2018-03-28T18:38:24.208Z,4.62
2018-03-28T18:40:52.672Z,4.57
2018-03-28T18:43:21.074Z,4.56
2018-03-28T18:45:49.460Z,4.59
2018-03-28T18:48:17.886Z,4.54
2018-03-28T18:50:46.339Z,4.54
2018-03-28T18:53:14.761Z,4.65
2018-03-28T18:55:43.153Z,4.49
2018-03-28T18:58:11.588Z,4.37
2018-03-28T19:00:40.000Z,4.37
2018-03-28T19:03:08.483Z,4.26
2018-03-28T19:05:36.917Z,4.16
2018-03-28T19:08:05.399Z,4.21
2018-03-28T19:10:33.882Z,4.17
2018-03-28T19:13:02.274Z,4.02
2018-03-28T19:15:30.698Z,4.06
2018-03-28T19:17:59.256Z,4.06
2018-03-28T19:20:27.688Z,3.85
2018-03-28T19:22:56.085Z,3.98
2018-03-28T19:25:24.525Z,3.96
2018-03-28T19:27:52.961Z,3.92
2018-03-28T19:30:21.389Z,3.88
2018-03-28T19:32:49.832Z,3.88
2018-03-28T19:35:18.281Z,3.84
2018-03-28T19:37:46.722Z,3.77
2018-03-28T19:40:15.182Z,3.71
2018-03-28T19:42:43.613Z,3.78
2018-03-28T19:45:12.042Z,3.74
2018-03-28T19:47:40.485Z,3.48
2018-03-28T19:50:08.941Z,3.70
2018-03-28T19:52:37.368Z,3.60
2018-03-28T19:55:05.759Z,3.75
2018-03-28T19:57:34.179Z,3.64
2018-03-28T20:00:02.623Z,3.71
2018-03-28T20:02:31.082Z,3.55
2018-03-28T20:04:59.481Z,3.49
2018-03-28T20:07:27.933Z,3.43
2018-03-28T20:09:56.313Z,3.31
2018-03-28T20:12:24.799Z,3.27
2018-03-28T20:14:53.244Z,3.20
2018-03-28T20:17:21.681Z,3.22
2018-03-28T20:19:50.100Z,3.30
2018-03-28T20:22:18.504Z,3.26
2018-03-28T20:24:46.972Z,3.17
2018-03-28T20:27:15.412Z,3.17
2018-03-28T20:29:43.838Z,3.05
2018-03-28T20:32:12.249Z,3.14
2018-03-28T20:34:40.732Z,3.15
2018-03-28T20:37:09.126Z,3.09
2018-03-28T20:39:37.548Z,3.17
2018-03-28T20:42:05.953Z,3.15
2018-03-28T20:44:34.376Z,3.04
2018-03-28T20:47:02.765Z,2.97
2018-03-28T20:49:31.269Z,3.03
2018-03-28T20:51:59.709Z,3.03
2018-03-28T20:54:28.125Z,3.03
2018-03-28T20:56:56.581Z,3.12
2018-03-28T20:59:24.995Z,3.05
2018-03-28T21:01:53.389Z,3.08
2018-03-28T21:04:21.891Z,2.76
2018-03-28T21:06:50.313Z,2.75
2018-03-28T21:09:18.717Z,2.90
2018-03-28T21:11:47.200Z,2.86
2018-03-28T21:14:15.658Z,2.79
2018-03-28T21:16:44.061Z,2.80
2018-03-28T21:19:12.465Z,2.84
2018-03-28T21:21:40.913Z,2.91
2018-03-28T21:24:09.465Z,2.99
2018-03-28T21:26:37.885Z,2.95
2018-03-28T21:29:06.332Z,2.80
2018-03-28T21:31:34.923Z,2.81
2018-03-28T21:34:03.434Z,2.76
2018-03-28T21:36:31.898Z,2.86
2018-03-28T21:39:00.338Z,2.62
2018-03-28T21:41:28.827Z,2.64
2018-03-28T21:43:57.269Z,2.69
2018-03-28T21:46:25.748Z,2.48
2018-03-28T21:48:54.155Z,2.58
2018-03-28T21:51:22.637Z,2.48
2018-03-28T21:53:51.034Z,2.47
2018-03-28T21:56:19.614Z,2.51
2018-03-28T21:58:48.060Z,2.41
2018-03-28T22:01:16.469Z,2.32
2018-03-28T22:03:45.051Z,2.36
2018-03-28T22:06:13.460Z,2.25
2018-03-28T22:08:41.924Z,2.22
2018-03-28T22:11:10.364Z,2.05
2018-03-28T22:13:38.847Z,2.19
2018-03-28T22:16:07.300Z,2.17
2018-03-28T22:18:35.801Z,2.13
2018-03-28T22:21:04.310Z,1.77
2018-03-28T22:23:32.740Z,2.22
2018-03-28T22:26:01.313Z,1.88
2018-03-28T22:28:29.759Z,2.10
2018-03-28T22:30:58.220Z,1.91
2018-03-28T22:33:26.632Z,1.55
2018-03-28T22:35:55.080Z,1.56
2018-03-28T22:38:23.639Z,1.31
2018-03-28T22:40:52.065Z,1.34
2018-03-28T22:43:20.521Z,1.42
2018-03-28T22:45:49.106Z,1.25
2018-03-28T22:48:17.890Z,1.61
2018-03-28T22:50:46.356Z,1.14
2018-03-28T22:53:14.805Z,1.09
2018-03-28T22:55:43.250Z,1.26
2018-03-28T22:58:11.688Z,1.01
2018-03-28T23:00:40.211Z,1.24
2018-03-28T23:03:08.773Z,1.36
2018-03-28T23:05:37.330Z,1.03
2018-03-28T23:08:05.740Z,0.97
2018-03-28T23:10:34.209Z,0.92
2018-03-28T23:13:02.605Z,1.21
2018-03-28T23:15:31.204Z,1.42
2018-03-28T23:17:59.757Z,1.10
2018-03-28T23:20:28.233Z,1.28
2018-03-28T23:22:56.629Z,1.27
2018-03-28T23:25:25.104Z,1.51
2018-03-28T23:27:53.506Z,0.93
2018-03-28T23:30:21.936Z,0.93
2018-03-28T23:32:50.338Z,1.15
2018-03-28T23:35:18.777Z,0.87
2018-03-28T23:37:47.196Z,0.72
2018-03-28T23:40:15.692Z,0.79
2018-03-28T23:42:44.169Z,0.99
2018-03-28T23:45:12.602Z,0.99
2018-03-28T23:47:40.997Z,0.80
2018-03-28T23:50:09.450Z,0.45
2018-03-28T23:52:38.006Z,1.37
2018-03-28T23:55:06.453Z,1.39
2018-03-28T23:57:34.941Z,1.45
